Time;durP1;ratioP1;P1;durP2;ratioP2;P2;SDS_P1;SDS_P2;PMS_P1;PMS_P2;Temp;Humidity;BMP_temperature;BMP_pressure;BME280_temperature;BME280_humidity;BME280_pressure;Samples;Min_cycle;Max_cycle;Signal;HPM_P1;HPM_P2
2022/01/03 00:00:43;;;;;;;5.68;1.70;;;11.20;57.80;;;9.78;61.57;96087.19;4914561;29;20055;-68
2022/01/03 00:03:11;;;;;;;3.28;1.55;;;11.20;57.90;;;9.76;61.69;96085.75;4931301;29;20040;-68
2022/01/03 00:05:37;;;;;;;2.83;1.42;;;11.20;58.10;;;9.75;61.34;96082.31;4927381;29;20055;-69
2022/01/03 00:08:03;;;;;;;4.30;1.60;;;11.20;58.30;;;9.75;62.04;96078.88;4929668;29;20040;-68
2022/01/03 00:10:29;;;;;;;4.13;1.38;;;11.20;58.60;;;9.73;61.95;96079.06;4908508;29;20044;-67
2022/01/03 00:12:55;;;;;;;3.05;1.50;;;11.20;58.70;;;9.73;62.72;96073.81;4886706;29;20036;-67
2022/01/03 00:15:21;;;;;;;4.53;1.20;;;11.10;59.20;;;9.72;63.14;96072.16;4905801;28;20039;-66
2022/01/03 00:17:48;;;;;;;4.22;1.95;;;11.20;59.20;;;9.71;62.24;96075.78;4928062;29;20103;-69
2022/01/03 00:20:14;;;;;;;4.43;1.50;;;11.20;59.40;;;9.72;62.69;96073.97;4926132;29;20067;-69
2022/01/03 00:23:05;;;;;;;7.03;1.80;;;11.20;59.50;;;9.73;64.29;96068.56;4928310;29;20042;-69
2022/01/03 00:25:31;;;;;;;2.63;1.20;;;11.20;59.60;;;9.69;63.63;96067.28;4923115;28;20559;-69
2022/01/03 00:28:11;;;;;;;2.42;1.27;;;11.10;59.80;;;9.69;64.36;96066.47;4927816;29;20073;-69
2022/01/03 00:30:39;;;;;;;3.63;1.95;;;11.10;60.10;;;9.66;63.13;96062.38;4939914;29;20035;-67
2022/01/03 00:33:05;;;;;;;4.75;1.70;;;11.10;60.20;;;9.66;64.12;96057.13;4930237;28;20048;-68
2022/01/03 00:35:34;;;;;;;3.25;1.58;;;11.10;60.20;;;9.65;64.01;96063.38;4913125;29;20036;-67
2022/01/03 00:38:00;;;;;;;5.13;1.95;;;11.10;60.70;;;9.66;64.64;96067.66;4931066;29;20035;-68
2022/01/03 00:40:25;;;;;;;4.30;1.50;;;11.10;60.80;;;9.66;64.45;96067.66;4915121;29;20125;-68
2022/01/03 00:42:51;;;;;;;3.78;1.60;;;11.10;61.00;;;9.65;64.29;96066.00;4915035;29;20526;-68
2022/01/03 00:45:17;;;;;;;2.78;1.33;;;11.10;61.00;;;9.63;64.36;96068.00;4911255;29;20198;-68
2022/01/03 00:47:44;;;;;;;4.88;1.35;;;11.10;61.20;;;9.63;65.52;96052.25;4909762;29;20068;-67
2022/01/03 00:50:15;;;;;;;3.20;1.52;;;11.10;61.40;;;9.63;66.07;96068.00;4927295;29;20060;-68
2022/01/03 00:52:42;;;;;;;3.80;1.63;;;11.10;61.60;;;9.62;66.28;96061.13;4899131;29;20456;-68
2022/01/03 00:55:08;;;;;;;2.80;1.50;;;11.10;62.00;;;9.59;66.65;96051.00;4921671;29;20322;-67
2022/01/03 00:58:08;;;;;;;3.22;1.60;;;11.00;62.30;;;9.59;66.67;96056.25;4914512;29;20130;-67
2022/01/03 01:00:37;;;;;;;5.35;1.38;;;11.00;62.50;;;9.54;66.83;96048.13;4928260;29;20051;-67
2022/01/03 01:03:12;;;;;;;3.72;1.60;;;11.00;63.00;;;9.52;66.63;96050.13;4903688;29;20131;-68
2022/01/03 01:05:56;;;;;;;4.00;1.48;;;11.00;63.30;;;9.53;67.21;96051.75;4911872;29;20194;-68
2022/01/03 01:08:23;;;;;;;4.38;1.35;;;10.90;63.60;;;9.52;67.41;96050.13;4914800;29;20047;-69
2022/01/03 01:10:52;;;;;;;3.65;1.50;;;10.90;64.00;;;9.49;66.81;96051.28;4907712;29;20040;-68
2022/01/03 01:13:18;;;;;;;5.80;1.75;;;10.90;64.40;;;9.50;68.32;96052.09;4896498;29;20055;-67
2022/01/03 01:15:44;;;;;;;3.00;1.27;;;10.90;64.40;;;9.50;67.69;96046.84;4899788;29;20420;-68
2022/01/03 01:18:10;;;;;;;2.50;1.48;;;10.90;64.70;;;9.50;68.71;96037.19;4927943;29;20044;-68
2022/01/03 01:20:37;;;;;;;3.58;1.45;;;10.90;64.80;;;9.51;68.49;96046.69;4932003;29;20047;-68
2022/01/03 01:23:03;;;;;;;3.10;1.40;;;10.90;65.00;;;9.53;68.08;96046.50;4921502;29;20133;-69
2022/01/03 01:28:05;;;;;;;5.55;1.70;;;10.90;65.20;;;9.54;68.74;96042.88;4915870;29;20043;-67
2022/01/03 01:30:31;;;;;;;5.68;1.90;;;10.90;65.20;;;9.54;69.41;96032.38;4900536;29;20040;-67
2022/01/03 01:33:14;;;;;;;4.07;1.33;;;11.00;65.20;;;9.57;70.97;96047.75;4914811;29;20040;-66
2022/01/03 01:35:53;;;;;;;4.68;1.30;;;10.90;65.40;;;9.56;69.11;96040.06;4911328;29;20492;-67
2022/01/03 01:38:21;;;;;;;5.13;1.75;;;10.90;65.30;;;9.56;68.81;96040.88;4910488;29;20051;-67
2022/01/03 01:40:55;;;;;;;3.08;1.42;;;10.90;65.30;;;9.57;69.77;96046.94;4912685;29;20092;-67
2022/01/03 01:43:37;;;;;;;3.70;1.25;;;10.90;65.20;;;9.57;69.73;96032.00;4909898;29;20048;-67
2022/01/03 01:46:17;;;;;;;4.72;1.58;;;11.00;65.30;;;9.57;69.63;96039.88;4929809;29;20038;-67
2022/01/03 01:48:46;;;;;;;3.92;1.50;;;11.00;65.20;;;9.55;69.39;96028.75;4927350;29;20071;-67
2022/01/03 01:51:13;;;;;;;6.70;1.48;;;11.00;65.20;;;9.55;70.54;96026.13;4923124;29;20086;-67
2022/01/03 01:53:51;;;;;;;4.65;1.38;;;11.00;65.30;;;9.57;70.61;96034.63;4911486;29;20512;-67
2022/01/03 01:56:37;;;;;;;6.53;1.48;;;10.90;65.30;;;9.57;70.43;96021.50;4928545;29;20043;-67
2022/01/03 01:59:18;;;;;;;3.05;1.40;;;10.90;65.30;;;9.58;69.63;96012.63;4926638;29;20046;-66
2022/01/03 02:02:06;;;;;;;2.55;1.20;;;10.90;65.00;;;9.60;69.93;96018.50;4911780;29;20035;-68
2022/01/03 02:04:33;;;;;;;5.63;1.58;;;11.00;64.80;;;9.62;68.64;96019.13;4919536;29;20087;-68
2022/01/03 02:07:11;;;;;;;6.05;1.50;;;11.00;64.90;;;9.65;70.16;96013.50;4930141;29;20043;-69
2022/01/03 02:09:51;;;;;;;2.78;1.30;;;11.10;64.90;;;9.66;70.29;96017.75;4926331;29;20096;-68
2022/01/03 02:12:18;;;;;;;3.80;1.50;;;11.10;64.80;;;9.67;69.22;96032.50;4913201;29;20440;-67
2022/01/03 02:14:44;;;;;;;6.03;1.27;;;11.10;64.80;;;9.70;69.00;96020.81;4887134;29;20776;-67
2022/01/03 02:17:10;;;;;;;7.38;1.30;;;11.10;64.80;;;9.71;70.23;96033.75;4929380;29;20670;-67
2022/01/03 02:19:37;;;;;;;3.90;1.40;;;11.10;64.70;;;9.73;69.23;96029.16;4933806;29;20043;-67
2022/01/03 02:22:03;;;;;;;7.18;1.38;;;11.10;64.90;;;9.76;69.30;96023.53;4933707;29;20071;-67
2022/01/03 02:24:29;;;;;;;5.88;1.33;;;11.10;64.60;;;9.77;68.32;96000.69;4929525;29;20040;-68
2022/01/03 02:26:55;;;;;;;5.10;1.17;;;11.10;64.50;;;9.77;69.13;95992.81;4907093;29;20098;-67
2022/01/03 02:29:20;;;;;;;4.05;1.42;;;11.10;64.60;;;9.79;68.86;96007.41;4916597;29;20614;-67
2022/01/03 02:31:46;;;;;;;3.17;1.20;;;11.10;64.50;;;9.80;69.19;96010.84;4932452;29;20047;-67
2022/01/03 02:34:12;;;;;;;6.68;1.48;;;11.20;64.50;;;9.80;68.57;96022.16;4929966;29;20071;-67
2022/01/03 02:36:42;;;;;;;4.28;1.38;;;11.10;64.70;;;9.79;69.69;96023.16;4917283;29;20459;-67
2022/01/03 02:39:07;;;;;;;3.58;1.05;;;11.10;65.00;;;9.79;70.14;96017.91;4932925;29;20043;-67
2022/01/03 02:41:33;;;;;;;4.55;1.20;;;11.10;64.90;;;9.79;69.25;96009.22;4930661;29;20040;-67
2022/01/03 02:43:59;;;;;;;4.25;1.13;;;11.10;64.80;;;9.79;69.74;96015.28;4932896;29;20111;-68
2022/01/03 02:46:24;;;;;;;4.13;1.30;;;11.10;64.90;;;9.78;69.69;96016.28;4932775;29;20036;-68
2022/01/03 02:48:50;;;;;;;3.83;1.10;;;11.10;64.90;;;9.79;69.95;96025.78;4911046;29;20443;-67
2022/01/03 02:51:16;;;;;;;4.82;1.30;;;11.10;64.90;;;9.81;69.48;96031.66;4932634;29;20048;-68
2022/01/03 02:53:42;;;;;;;3.55;1.20;;;11.10;65.00;;;9.82;68.99;96025.41;4916206;29;20115;-67
2022/01/03 02:56:07;;;;;;;4.05;1.00;;;11.10;65.20;;;9.81;70.05;96023.78;4912911;29;20112;-67
2022/01/03 02:58:33;;;;;;;3.83;1.20;;;11.10;65.20;;;9.79;70.20;96031.03;4905189;29;20428;-68
2022/01/03 03:00:59;;;;;;;5.88;1.10;;;11.10;65.40;;;9.78;70.20;96029.41;4932663;29;20048;-68
2022/01/03 03:03:24;;;;;;;5.68;1.38;;;11.10;65.40;;;9.79;69.85;96045.97;4913297;29;20036;-68
2022/01/03 03:05:50;;;;;;;2.70;0.93;;;11.10;65.50;;;9.77;70.52;96021.72;4915079;29;20036;-68
2022/01/03 03:08:16;;;;;;;4.43;1.17;;;11.10;65.40;;;9.77;70.33;96014.66;4913804;29;20044;-68
2022/01/03 03:10:42;;;;;;;3.75;1.10;;;11.10;65.40;;;9.75;70.53;96024.53;4928996;29;20571;-68
2022/01/03 03:13:08;;;;;;;3.83;0.98;;;11.10;65.60;;;9.77;70.02;96025.16;4921685;29;20120;-67
2022/01/03 03:15:35;;;;;;;6.20;1.27;;;11.10;65.60;;;9.77;70.45;96019.09;4931462;29;20042;-67
2022/01/03 03:18:01;;;;;;;4.65;1.92;;;11.10;65.80;;;9.76;69.92;96018.28;4932361;29;20043;-68
2022/01/03 03:20:29;;;;;;;7.93;4.13;;;11.10;65.70;;;9.76;70.70;96015.66;4916504;29;20555;-68
2022/01/03 03:22:56;;;;;;;4.80;1.92;;;11.10;66.00;;;9.76;69.91;96014.84;4916019;29;20589;-68
2022/01/03 03:25:23;;;;;;;3.45;1.20;;;11.10;65.70;;;9.76;69.45;96015.66;4915679;28;20145;-67
2022/01/03 03:27:51;;;;;;;7.22;1.40;;;11.10;65.90;;;9.75;70.80;96014.03;4900618;29;20622;-67
2022/01/03 03:30:25;;;;;;;4.60;1.63;;;11.10;65.90;;;9.76;71.21;96023.53;4910409;29;20047;-68
2022/01/03 03:32:54;;;;;;;5.07;1.70;;;11.10;66.10;;;9.75;71.08;96035.03;4929427;29;20040;-68
2022/01/03 03:35:20;;;;;;;5.63;2.20;;;11.10;66.30;;;9.75;70.53;96027.16;4912749;29;20039;-68
2022/01/03 03:37:46;;;;;;;8.43;3.03;;;11.10;66.10;;;9.74;70.35;96035.22;4883725;29;20534;-68
2022/01/03 03:40:12;;;;;;;4.03;1.77;;;11.10;66.60;;;9.73;71.49;96042.28;4915493;29;20134;-67
2022/01/03 03:42:38;;;;;;;7.07;2.03;;;11.10;66.80;;;9.73;72.08;96042.28;4928370;29;20500;-67
2022/01/03 03:45:05;;;;;;;5.25;1.98;;;11.10;66.80;;;9.72;71.26;96039.81;4900523;29;20040;-67
2022/01/03 03:47:31;;;;;;;3.95;1.60;;;11.10;66.70;;;9.70;71.29;96042.63;4913282;29;20055;-68
2022/01/03 03:49:57;;;;;;;8.80;2.13;;;11.00;67.20;;;9.68;71.18;96044.63;4897634;29;20142;-69
2022/01/03 03:52:23;;;;;;;5.28;1.65;;;11.00;67.40;;;9.66;71.97;96046.63;4903424;29;20032;-68
2022/01/03 03:54:48;;;;;;;11.52;7.20;;;11.00;67.20;;;9.67;72.14;96053.50;4927787;29;20068;-67
2022/01/03 03:57:14;;;;;;;6.97;2.55;;;11.00;67.50;;;9.65;72.70;96055.50;4942785;28;20035;-67
2022/01/03 03:59:40;;;;;;;4.35;1.40;;;11.00;67.50;;;9.63;71.58;96044.38;4923733;29;20538;-68
2022/01/03 04:02:07;;;;;;;7.18;1.42;;;11.00;67.60;;;9.62;72.58;96044.56;4916376;29;20036;-68
2022/01/03 04:04:33;;;;;;;6.18;1.40;;;10.90;67.70;;;9.60;72.21;96042.13;4925817;29;20028;-69
2022/01/03 04:06:58;;;;;;;3.90;1.27;;;10.90;67.70;;;9.60;73.06;96047.38;4915844;29;20039;-68
2022/01/03 04:09:24;;;;;;;8.05;1.45;;;10.90;67.80;;;9.59;72.38;96051.00;4915740;29;20494;-68
2022/01/03 04:11:50;;;;;;;3.60;1.35;;;11.00;67.80;;;9.59;73.12;96052.81;4915393;29;20046;-68
2022/01/03 04:14:16;;;;;;;5.22;1.75;;;10.90;67.90;;;9.57;72.49;96058.25;4915200;29;20035;-68
2022/01/03 04:16:41;;;;;;;9.25;4.45;;;10.90;68.00;;;9.57;72.55;96060.88;4931385;29;20032;-68
2022/01/03 04:19:07;;;;;;;8.48;3.88;;;10.90;68.40;;;9.56;72.40;96066.31;4915415;28;20612;-68
2022/01/03 04:21:33;;;;;;;4.85;2.40;;;10.90;68.40;;;9.55;72.89;96069.94;4899560;29;20036;-68
2022/01/03 04:23:59;;;;;;;8.10;2.28;;;10.80;68.30;;;9.55;73.39;96075.19;4915414;29;20059;-68
2022/01/03 04:26:25;;;;;;;7.95;4.45;;;11.00;68.40;;;9.54;73.53;96074.38;4927525;29;20037;-68
2022/01/03 04:28:50;;;;;;;6.75;1.75;;;10.90;68.40;;;9.52;72.37;96061.44;4890497;29;20106;-68
2022/01/03 04:31:16;;;;;;;4.50;1.30;;;10.80;68.50;;;9.49;73.80;96072.28;4914793;29;20071;-68
2022/01/03 04:33:42;;;;;;;4.45;1.35;;;10.80;68.50;;;9.48;72.28;96068.03;4930402;29;20035;-68
2022/01/03 04:36:09;;;;;;;5.72;1.38;;;10.80;68.70;;;9.49;73.00;96071.47;4930030;29;20046;-69
2022/01/03 04:38:36;;;;;;;5.45;1.45;;;10.90;68.50;;;9.47;73.00;96068.22;4910904;29;20460;-68
2022/01/03 04:41:01;;;;;;;4.18;1.50;;;10.80;68.60;;;9.45;72.78;96070.19;4904450;29;20512;-70
2022/01/03 04:43:27;;;;;;;5.07;1.70;;;10.80;68.60;;;9.45;73.97;96067.56;4926167;29;20032;-68
2022/01/03 04:45:55;;;;;;;6.53;1.67;;;10.80;68.60;;;9.45;73.65;96076.25;4928720;29;20035;-68
2022/01/03 04:48:20;;;;;;;6.22;1.77;;;10.80;68.70;;;9.44;74.17;96073.81;4931154;29;20127;-68
2022/01/03 04:50:46;;;;;;;6.30;1.40;;;10.80;68.90;;;9.41;73.52;96075.00;4930323;29;20563;-67
2022/01/03 04:53:12;;;;;;;4.65;1.25;;;10.70;69.10;;;9.40;74.35;96080.44;4930704;28;20118;-68
2022/01/03 04:55:37;;;;;;;6.47;1.33;;;10.70;69.10;;;9.39;73.73;96084.06;4930094;29;20496;-68
2022/01/03 04:58:03;;;;;;;3.90;1.52;;;10.80;69.10;;;9.38;74.71;96069.31;4925617;29;20044;-68
2022/01/03 05:00:29;;;;;;;4.55;1.20;;;10.70;69.10;;;9.38;74.65;96077.19;4904892;29;20040;-67
2022/01/03 05:02:54;;;;;;;4.03;1.10;;;10.70;69.10;;;9.37;74.01;96083.44;4884549;29;20095;-69
2022/01/03 05:05:21;;;;;;;5.10;1.27;;;10.70;69.10;;;9.36;74.41;96077.38;4918332;29;20456;-68
2022/01/03 05:07:47;;;;;;;6.40;1.30;;;10.80;69.10;;;9.36;74.28;96087.06;4914056;29;20040;-68
2022/01/03 05:10:13;;;;;;;4.10;1.02;;;10.70;69.20;;;9.36;74.45;96087.06;4913481;29;20067;-68
2022/01/03 05:12:39;;;;;;;5.70;1.20;;;10.80;69.20;;;9.35;74.79;96090.69;4914622;29;20043;-67
2022/01/03 05:15:05;;;;;;;6.10;1.17;;;10.70;69.20;;;9.34;73.90;96079.38;4920380;29;20504;-67
2022/01/03 05:17:31;;;;;;;4.45;1.27;;;10.70;69.20;;;9.34;74.32;96089.06;4884070;29;20036;-67
2022/01/03 05:19:58;;;;;;;5.32;1.52;;;10.70;69.30;;;9.33;73.70;96087.41;4911073;29;20411;-68
2022/01/03 05:22:24;;;;;;;5.60;1.80;;;10.70;69.30;;;9.31;75.24;96090.22;4930535;29;20129;-67
2022/01/03 05:24:50;;;;;;;7.63;2.65;;;10.70;69.50;;;9.31;74.32;96094.66;4930214;29;20043;-67
2022/01/03 05:27:16;;;;;;;6.05;1.33;;;10.70;69.50;;;9.31;74.65;96097.28;4930157;29;20118;-68
2022/01/03 05:29:41;;;;;;;6.47;1.50;;;10.70;69.50;;;9.29;74.59;96091.41;4916037;29;20083;-67
2022/01/03 05:32:07;;;;;;;4.70;1.23;;;10.60;69.50;;;9.28;74.65;96090.59;4929588;29;20043;-68
2022/01/03 05:34:33;;;;;;;8.20;1.88;;;10.70;69.30;;;9.28;75.02;96101.09;4924543;29;20048;-68
2022/01/03 05:36:59;;;;;;;5.72;1.25;;;10.60;69.30;;;9.28;74.22;96098.47;4927653;29;20028;-68
2022/01/03 05:39:24;;;;;;;5.28;1.38;;;10.70;69.00;;;9.27;74.38;96109.13;4930140;29;20067;-67
2022/01/03 05:41:50;;;;;;;5.18;1.40;;;10.60;69.20;;;9.26;74.15;96112.75;4911233;29;20067;-70
2022/01/03 05:44:16;;;;;;;3.78;1.15;;;10.60;69.10;;;9.24;75.00;96099.00;4925164;29;20025;-67
2022/01/03 05:46:42;;;;;;;8.70;1.40;;;10.60;69.10;;;9.25;74.60;96103.25;4931403;29;20095;-67
2022/01/03 05:49:08;;;;;;;5.85;1.50;;;10.60;68.90;;;9.25;74.78;96109.31;4914414;29;20024;-71
2022/01/03 05:51:34;;;;;;;7.28;1.75;;;10.60;68.80;;;9.25;74.07;96101.44;4900844;29;20032;-72
2022/01/03 05:53:59;;;;;;;4.25;0.98;;;10.60;68.60;;;9.26;73.65;96103.06;4914558;29;20125;-67
2022/01/03 05:56:25;;;;;;;6.47;1.45;;;10.70;68.60;;;9.26;73.91;96097.00;4914043;29;20036;-67
2022/01/03 05:58:51;;;;;;;5.00;1.38;;;10.60;68.60;;;9.26;74.08;96107.50;4933437;29;20031;-66
2022/01/03 06:01:19;;;;;;;4.90;1.05;;;10.60;68.50;;;9.24;73.35;96109.50;4913774;29;20165;-68
2022/01/03 06:03:45;;;;;;;8.73;1.42;;;10.60;68.60;;;9.24;74.19;96105.06;4937250;29;20051;-68
2022/01/03 06:08:37;;;;;;;7.88;1.30;;;10.60;68.40;;;9.24;74.52;96109.50;4898760;29;20036;-68
2022/01/03 06:11:03;;;;;;;7.28;1.55;;;10.60;68.40;;;9.24;73.27;96106.88;4912922;29;20372;-67
2022/01/03 06:13:29;;;;;;;6.00;1.77;;;10.60;68.30;;;9.24;73.16;96109.50;4903003;29;20048;-67
2022/01/03 06:15:55;;;;;;;7.05;1.10;;;10.60;68.40;;;9.23;74.41;96105.22;4898539;29;20123;-67
2022/01/03 06:18:20;;;;;;;5.18;1.30;;;10.70;68.40;;;9.22;73.81;96104.41;4883732;29;20032;-68
2022/01/03 06:20:47;;;;;;;7.43;2.75;;;10.60;68.30;;;9.21;74.49;96102.78;4901636;29;20709;-67
2022/01/03 06:23:14;;;;;;;6.68;1.88;;;10.60;68.60;;;9.21;74.25;96105.41;4906130;29;20024;-67
2022/01/03 06:25:40;;;;;;;7.20;2.55;;;10.60;68.40;;;9.19;73.58;96097.72;4894393;29;20032;-67
2022/01/03 06:28:09;;;;;;;6.07;1.80;;;10.60;68.60;;;9.18;74.12;96103.16;4884376;29;20032;-67
2022/01/03 06:30:39;;;;;;;5.80;1.48;;;10.50;68.60;;;9.17;74.74;96102.34;4911710;29;20446;-67
2022/01/03 06:33:05;;;;;;;5.30;1.25;;;10.60;68.60;;;9.14;73.62;96105.31;4948490;28;20043;-66
2022/01/03 06:35:32;;;;;;;6.65;1.38;;;10.50;68.60;;;9.14;74.60;96097.47;4931963;29;20040;-67
2022/01/03 06:37:58;;;;;;;5.65;1.15;;;10.50;68.60;;;9.14;73.68;96094.84;4916586;29;20039;-67
2022/01/03 06:40:24;;;;;;;6.10;1.30;;;10.60;68.40;;;9.12;73.53;96096.81;4898073;29;20119;-67
2022/01/03 06:42:51;;;;;;;8.88;1.42;;;10.50;68.40;;;9.10;74.03;96098.00;4910646;29;20062;-67
2022/01/03 06:45:16;;;;;;;5.72;1.38;;;10.50;68.50;;;9.09;74.32;96102.44;4916200;29;20036;-68
2022/01/03 06:47:42;;;;;;;4.60;1.30;;;10.50;68.40;;;9.10;73.15;96098.00;4913189;29;20039;-67
2022/01/03 06:50:09;;;;;;;7.45;1.67;;;10.50;68.40;;;9.10;73.91;96098.00;4925378;29;20110;-67
2022/01/03 06:52:35;;;;;;;8.13;1.60;;;10.50;68.30;;;9.08;74.05;96100.81;4928974;29;20502;-67
2022/01/03 06:55:00;;;;;;;5.68;1.48;;;10.50;68.20;;;9.09;74.34;96109.50;4907876;29;20039;-67
2022/01/03 06:57:26;;;;;;;5.18;1.40;;;10.40;68.20;;;9.07;74.38;96114.91;4930706;29;20039;-66
2022/01/03 06:59:52;;;;;;;6.80;1.40;;;10.50;68.20;;;9.09;73.00;96112.13;4914341;29;20242;-64
2022/01/03 07:02:18;;;;;;;4.93;1.25;;;10.50;68.10;;;9.07;74.29;96104.44;4932657;29;20511;-67
2022/01/03 07:04:43;;;;;;;4.68;1.10;;;10.40;68.30;;;9.05;73.38;96111.66;4928254;29;20689;-68
2022/01/03 07:07:09;;;;;;;3.15;1.10;;;10.40;68.30;;;9.05;73.49;96113.44;4900375;29;20051;-67
2022/01/03 07:09:35;;;;;;;5.85;1.20;;;10.40;68.40;;;9.05;73.09;96114.28;4928245;29;20051;-66
2022/01/03 07:12:01;;;;;;;4.65;1.00;;;10.40;68.50;;;9.04;73.95;96110.00;4932439;29;20535;-69
2022/01/03 07:19:38;;;;;;;5.28;2.00;;;10.40;68.70;;;9.03;73.40;96105.75;4929713;29;20050;-69
2022/01/03 07:22:05;;;;;;;8.73;1.80;;;10.40;68.50;;;9.04;73.78;96112.63;4932166;29;20032;-66
2022/01/03 07:24:32;;;;;;;6.35;1.67;;;10.40;68.50;;;9.05;73.49;96121.31;4927965;29;20040;-68
2022/01/03 07:27:00;;;;;;;4.07;1.58;;;10.50;68.50;;;9.06;74.25;96112.47;4913486;29;20032;-69
2022/01/03 07:29:26;;;;;;;6.13;1.27;;;10.50;68.60;;;9.06;74.35;96113.28;4926593;28;20107;-69
2022/01/03 07:31:52;;;;;;;6.43;1.33;;;10.40;68.70;;;9.06;74.16;96118.53;4932069;29;20035;-68
2022/01/03 07:34:17;;;;;;;4.80;1.20;;;10.50;68.40;;;9.06;74.69;96113.28;4923579;29;20043;-69
2022/01/03 07:36:43;;;;;;;5.43;1.35;;;10.50;68.20;;;9.08;74.29;96116.56;4931556;29;20040;-68
2022/01/03 07:39:09;;;;;;;5.90;1.48;;;10.50;68.00;;;9.07;73.55;96112.28;4926139;29;20042;-69
2022/01/03 07:41:35;;;;;;;4.00;1.48;;;10.50;68.10;;;9.08;74.34;96111.31;4913470;29;20430;-67
2022/01/03 07:44:00;;;;;;;6.25;1.20;;;10.50;68.10;;;9.08;73.18;96124.41;4912530;29;20039;-70
2022/01/03 07:46:26;;;;;;;4.97;1.00;;;10.50;68.00;;;9.11;73.40;96110.94;4927847;29;20036;-71
2022/01/03 07:48:52;;;;;;;4.63;1.27;;;10.50;67.90;;;9.12;73.07;96117.00;4925394;29;20055;-66
2022/01/03 07:51:17;;;;;;;5.05;1.27;;;10.60;67.80;;;9.13;73.49;96123.88;4931347;28;20401;-69
2022/01/03 07:53:43;;;;;;;8.52;1.58;;;10.50;67.90;;;9.12;73.41;96123.06;4927924;29;20138;-69
2022/01/03 07:56:10;;;;;;;5.75;1.08;;;10.50;67.90;;;9.13;73.91;96119.44;4910057;29;20088;-69
2022/01/03 07:58:36;;;;;;;6.70;1.15;;;10.50;67.80;;;9.15;72.70;96117.44;4900250;29;20031;-65
2022/01/03 08:01:03;;;;;;;6.70;1.27;;;10.60;67.50;;;9.16;73.99;96108.59;4928397;29;20499;-71
2022/01/03 08:03:29;;;;;;;7.78;1.38;;;10.60;67.50;;;9.19;73.86;96110.03;4930586;29;20035;-72
2022/01/03 08:05:55;;;;;;;6.78;1.50;;;10.60;67.60;;;9.19;73.24;96096.91;4914717;29;20103;-71
2022/01/03 08:08:21;;;;;;;4.57;1.52;;;10.60;67.40;;;9.19;73.33;96102.97;4892603;29;20501;-73
2022/01/03 08:10:47;;;;;;;5.10;1.10;;;10.60;67.70;;;9.21;73.19;96116.72;4911635;29;20044;-71
2022/01/03 08:13:15;;;;;;;5.15;1.50;;;10.60;67.30;;;9.23;72.97;96118.34;4910006;28;20040;-71
2022/01/03 08:15:41;;;;;;;4.25;1.45;;;10.70;67.40;;;9.26;72.79;96118.00;4930114;29;20031;-71
2022/01/03 08:18:07;;;;;;;2.60;0.88;;;10.70;67.20;;;9.27;73.48;96124.88;4912178;29;20036;-71
2022/01/03 08:20:33;;;;;;;7.22;2.28;;;10.70;67.00;;;9.29;72.89;96122.91;4915499;29;20055;-70
2022/01/03 08:22:59;;;;;;;6.38;2.65;;;10.80;66.90;;;9.30;73.38;96119.28;4899344;29;20409;-71
2022/01/03 08:25:24;;;;;;;6.05;1.58;;;10.80;67.20;;;9.31;72.97;96126.97;4914019;29;20546;-71
2022/01/03 08:27:50;;;;;;;7.53;1.55;;;10.80;67.10;;;9.33;73.92;96124.19;4926985;29;20556;-71
2022/01/03 08:30:16;;;;;;;4.40;1.38;;;10.80;67.00;;;9.32;72.75;96120.72;4895911;29;20416;-71
2022/01/03 08:32:42;;;;;;;6.43;1.50;;;10.80;67.00;;;9.34;72.90;96112.69;4895949;29;20028;-72
2022/01/03 08:35:08;;;;;;;6.40;1.30;;;10.80;66.70;;;9.36;73.78;96113.31;4879855;29;20103;-71
2022/01/03 08:37:34;;;;;;;4.88;1.27;;;10.80;66.80;;;9.36;73.09;96102.81;4895731;29;20040;-70
2022/01/03 08:40:04;;;;;;;4.43;1.50;;;10.80;67.00;;;9.38;72.60;96104.25;4895935;29;20468;-70
2022/01/03 08:42:36;;;;;;;6.57;1.48;;;10.90;66.90;;;9.40;72.82;96104.06;4910681;29;20439;-71
2022/01/03 08:45:03;;;;;;;7.20;1.30;;;10.80;66.60;;;9.42;72.82;96112.56;4914460;29;20035;-71
2022/01/03 08:47:29;;;;;;;5.88;1.27;;;10.90;66.80;;;9.43;73.23;96108.97;4914251;29;20174;-71
2022/01/03 08:49:55;;;;;;;6.55;1.30;;;11.00;66.50;;;9.46;72.86;96103.34;4914360;29;20145;-71
2022/01/03 08:52:20;;;;;;;7.38;1.42;;;11.00;66.50;;;9.48;72.97;96112.66;4929512;29;20031;-70
2022/01/03 08:54:46;;;;;;;3.33;1.00;;;11.00;66.50;;;9.48;72.76;96115.28;4926491;29;20055;-70
2022/01/03 08:57:12;;;;;;;4.50;1.27;;;11.10;66.30;;;9.51;72.13;96111.50;4933864;28;20028;-67
2022/01/03 08:59:38;;;;;;;7.93;1.40;;;11.10;66.20;;;9.50;72.65;96112.47;4928580;29;20040;-70
2022/01/03 09:02:04;;;;;;;6.22;1.63;;;11.10;66.30;;;9.55;72.75;96118.03;4910727;29;20035;-69
2022/01/03 09:04:30;;;;;;;6.57;1.23;;;11.00;66.20;;;9.55;72.28;96115.41;4897876;29;20137;-70
2022/01/03 09:06:57;;;;;;;5.10;1.25;;;11.10;66.00;;;9.59;71.90;96100.09;4909724;29;20038;-70
2022/01/03 09:09:23;;;;;;;4.57;1.38;;;11.10;66.00;;;9.61;72.06;96116.47;4926742;29;20542;-69
2022/01/03 09:11:48;;;;;;;4.78;1.02;;;11.10;65.80;;;9.64;71.88;96106.41;4929950;29;20036;-69
2022/01/03 09:14:14;;;;;;;3.60;1.00;;;11.20;65.80;;;9.64;72.08;96111.66;4930277;29;20039;-70
2022/01/03 09:16:42;;;;;;;8.98;1.50;;;11.10;65.50;;;9.68;71.89;96107.66;4913991;29;20065;-70
2022/01/03 09:19:08;;;;;;;5.57;1.33;;;11.30;65.40;;;9.70;71.25;96116.19;4929149;28;20032;-69
2022/01/03 09:21:33;;;;;;;5.53;1.20;;;11.20;65.40;;;9.70;71.47;96105.66;4931993;29;20098;-70
2022/01/03 09:24:44;;;;;;;6.00;1.30;;;11.30;64.90;;;9.73;71.11;96109.75;4917964;29;20091;-70
2022/01/03 09:29:36;;;;;;;4.95;1.30;;;11.30;64.70;;;9.76;70.16;96120.72;4920215;29;20061;-67
2022/01/03 09:32:02;;;;;;;6.97;1.30;;;11.30;64.40;;;9.80;70.68;96115.91;4891508;29;20499;-67
2022/01/03 09:34:28;;;;;;;3.38;1.10;;;11.40;64.10;;;9.81;71.33;96113.09;4927176;29;20036;-68
2022/01/03 09:36:53;;;;;;;7.18;1.58;;;11.40;64.10;;;9.82;70.21;96111.28;4929221;29;20079;-68
2022/01/03 09:39:19;;;;;;;5.95;1.30;;;11.30;64.20;;;9.83;70.38;96105.84;4908457;28;20040;-68
2022/01/03 09:42:06;;;;;;;5.57;1.60;;;11.40;64.00;;;9.89;70.54;96108.72;4917085;29;20102;-69
2022/01/03 09:44:33;;;;;;;8.05;1.60;;;11.50;63.70;;;9.91;70.67;96106.72;4916957;29;20078;-69
2022/01/03 09:47:04;;;;;;;5.63;1.25;;;11.50;63.30;;;9.93;70.40;96109.97;4933007;29;20035;-69
2022/01/03 09:49:35;;;;;;;5.45;1.45;;;11.50;63.30;;;9.99;69.89;96104.00;4915050;29;20043;-67
2022/01/03 09:52:05;;;;;;;;;;;11.60;62.80;;;10.01;69.55;96104.63;4923188;29;20052;-69
2022/01/03 09:54:31;;;;;;;5.35;1.00;;;11.60;62.40;;;10.05;69.67;96103.25;4931440;29;19918;-68
2022/01/03 09:57:01;;;;;;;4.88;0.95;;;11.70;62.10;;;10.11;68.83;96108.59;4932574;29;20067;-67
2022/01/03 09:59:28;;;;;;;3.78;1.10;;;11.70;62.20;;;10.16;68.75;96110.66;4915525;28;20031;-68
2022/01/03 10:01:54;;;;;;;2.95;0.82;;;11.80;62.20;;;10.23;68.81;96092.38;4929150;29;20036;-68
2022/01/03 10:04:19;;;;;;;5.68;1.17;;;11.90;61.80;;;10.27;68.19;96101.50;4914610;29;20381;-69
2022/01/03 10:06:45;;;;;;;5.65;1.08;;;11.90;61.90;;;10.33;68.61;96096.31;4932083;29;20036;-70
2022/01/03 10:09:11;;;;;;;5.28;1.40;;;12.00;61.60;;;10.35;69.31;96089.03;4914962;28;20032;-69
2022/01/03 10:11:37;;;;;;;2.75;0.90;;;12.00;61.60;;;10.38;68.84;96086.03;4912840;29;20032;-70
2022/01/03 10:14:03;;;;;;;5.28;1.13;;;12.00;61.50;;;10.43;68.40;96081.06;4897710;29;20441;-67
2022/01/03 10:16:29;;;;;;;2.53;0.80;;;12.10;61.50;;;10.47;68.01;96081.47;4915124;29;20059;-70
2022/01/03 10:18:55;;;;;;;4.60;1.10;;;12.10;61.60;;;10.50;68.77;96072.41;4912400;29;20032;-67
2022/01/03 10:21:36;;;;;;;3.58;0.90;;;12.20;61.20;;;10.57;68.07;96078.53;4915112;29;20044;-67
2022/01/03 10:24:02;;;;;;;4.47;1.15;;;12.30;61.00;;;10.59;69.00;96073.88;4915743;29;20476;-71
2022/01/03 10:26:28;;;;;;;3.42;0.88;;;12.30;61.10;;;10.64;68.48;96079.41;4912292;29;20043;-69
2022/01/03 10:29:23;;;;;;;4.72;1.15;;;12.30;61.30;;;10.67;67.35;96076.41;4916802;29;20107;-71
2022/01/03 10:31:52;;;;;;;6.32;1.10;;;12.30;60.90;;;10.69;67.81;96074.41;4911508;29;20559;-71
2022/01/03 10:34:19;;;;;;;4.65;1.23;;;12.40;61.10;;;10.71;67.72;96082.91;4905456;29;20051;-70
2022/01/03 10:36:47;;;;;;;4.57;1.00;;;12.30;60.90;;;10.77;67.89;96082.13;4921557;29;20031;-70
2022/01/03 10:39:21;;;;;;;5.68;1.25;;;12.60;60.60;;;10.82;67.68;96085.00;4921866;28;20036;-67